createdAt,value
2017-11-10T00:00:02.992Z,76.30
2017-11-10T00:02:30.532Z,76.10
2017-11-10T00:04:58.042Z,76.20
2017-11-10T00:07:25.579Z,76.30
2017-11-10T00:09:53.862Z,76.10
2017-11-10T00:12:22.131Z,76.10
2017-11-10T00:14:50.420Z,76.70
2017-11-10T00:17:18.705Z,75.90
2017-11-10T00:19:46.237Z,75.90
2017-11-10T00:22:13.742Z,75.80
2017-11-10T00:24:41.269Z,75.90
2017-11-10T00:27:08.842Z,75.90
2017-11-10T00:29:36.338Z,76.20
2017-11-10T00:32:03.890Z,76.00
2017-11-10T00:34:31.399Z,76.00
2017-11-10T00:36:59.666Z,76.20
2017-11-10T00:39:28.068Z,76.00
2017-11-10T00:41:55.578Z,76.10
2017-11-10T00:44:23.178Z,76.30
2017-11-10T00:46:50.678Z,76.10
2017-11-10T00:49:18.176Z,75.90
2017-11-10T00:51:46.460Z,76.10
2017-11-10T00:54:14.733Z,76.10
2017-11-10T00:56:43.049Z,76.00
2017-11-10T00:59:10.587Z,76.00
2017-11-10T01:01:40.069Z,75.80
2017-11-10T01:04:08.332Z,76.20
2017-11-10T01:06:36.642Z,76.10
2017-11-10T01:09:04.193Z,75.90
2017-11-10T01:11:31.689Z,76.30
2017-11-10T01:13:59.233Z,75.70
2017-11-10T01:16:26.730Z,75.90
2017-11-10T01:18:54.264Z,75.90
2017-11-10T01:21:21.773Z,75.80
2017-11-10T01:23:49.301Z,75.90
2017-11-10T01:26:16.907Z,76.10
2017-11-10T01:28:44.444Z,76.30
2017-11-10T01:31:12.742Z,76.50
2017-11-10T01:33:40.298Z,76.50
2017-11-10T01:36:07.813Z,76.60
2017-11-10T01:38:35.349Z,76.80
2017-11-10T01:41:02.859Z,76.70
2017-11-10T01:43:30.395Z,77.10
2017-11-10T01:45:58.695Z,76.70
2017-11-10T01:48:31.253Z,76.60
2017-11-10T01:50:59.531Z,76.50
2017-11-10T01:53:27.803Z,76.40
2017-11-10T01:55:56.091Z,76.40
2017-11-10T01:58:23.600Z,76.40
2017-11-10T02:00:51.141Z,76.70
2017-11-10T02:03:18.653Z,76.70
2017-11-10T02:05:46.966Z,77.10
2017-11-10T02:08:14.505Z,77.70
2017-11-10T02:10:42.009Z,77.00
2017-11-10T02:13:09.560Z,77.80
2017-11-10T02:15:37.060Z,77.20
2017-11-10T02:18:05.351Z,77.70
2017-11-10T02:20:32.911Z,77.50
2017-11-10T02:23:00.471Z,77.60
2017-11-10T02:25:28.045Z,77.70
2017-11-10T02:27:55.549Z,77.70
2017-11-10T02:30:23.898Z,78.10
2017-11-10T02:32:51.415Z,78.20
2017-11-10T02:35:19.700Z,78.90
2017-11-10T02:37:47.238Z,78.90
2017-11-10T02:40:15.531Z,79.10
2017-11-10T02:42:43.048Z,79.10
2017-11-10T02:45:12.477Z,79.30
2017-11-10T02:47:40.764Z,79.80
2017-11-10T02:50:08.330Z,79.80
2017-11-10T02:52:35.873Z,79.70
2017-11-10T02:55:03.373Z,80.50
2017-11-10T02:57:30.880Z,79.80
2017-11-10T02:59:59.278Z,80.20
2017-11-10T03:02:26.791Z,80.20
2017-11-10T03:04:54.397Z,80.30
2017-11-10T03:07:21.946Z,80.30
2017-11-10T03:09:49.483Z,80.40
2017-11-10T03:12:17.761Z,80.30
2017-11-10T03:14:46.026Z,80.00
2017-11-10T03:17:13.550Z,79.90
2017-11-10T03:19:41.186Z,80.30
2017-11-10T03:22:08.706Z,80.70
2017-11-10T03:24:36.999Z,81.60
2017-11-10T03:27:04.506Z,80.80
2017-11-10T03:29:32.048Z,80.10
2017-11-10T03:31:59.548Z,80.10
2017-11-10T03:34:27.048Z,80.60
2017-11-10T03:36:54.587Z,80.90
2017-11-10T03:39:22.089Z,80.50
2017-11-10T03:41:49.593Z,80.30
2017-11-10T03:44:17.884Z,80.60
2017-11-10T03:46:45.385Z,80.40
2017-11-10T03:49:12.917Z,80.60
2017-11-10T03:51:40.427Z,80.60
2017-11-10T03:54:07.933Z,80.80
2017-11-10T03:56:35.466Z,80.80
2017-11-10T03:59:02.966Z,81.10
2017-11-10T04:01:30.493Z,81.00
2017-11-10T04:03:58.045Z,81.20
2017-11-10T04:06:25.546Z,81.30
2017-11-10T04:08:53.040Z,81.30
2017-11-10T04:11:21.336Z,81.50
2017-11-10T04:13:48.894Z,81.50
2017-11-10T04:16:16.450Z,81.30
2017-11-10T04:18:44.022Z,81.00
2017-11-10T04:21:11.526Z,80.30
2017-11-10T04:23:39.131Z,80.20
2017-11-10T04:26:06.666Z,80.50
2017-11-10T04:28:34.935Z,81.00
2017-11-10T04:31:02.470Z,81.00
2017-11-10T04:33:29.965Z,80.70
2017-11-10T04:35:58.274Z,79.50
2017-11-10T04:38:25.803Z,79.50
2017-11-10T04:40:53.308Z,79.30
2017-11-10T04:43:20.845Z,79.10
2017-11-10T04:45:48.347Z,78.60
2017-11-10T04:48:15.875Z,78.40
2017-11-10T04:50:43.405Z,78.30
2017-11-10T04:53:10.927Z,78.00
2017-11-10T04:55:38.473Z,78.00
2017-11-10T04:58:05.989Z,78.30
2017-11-10T05:00:33.544Z,78.20
2017-11-10T05:03:01.054Z,77.80
2017-11-10T05:05:28.588Z,77.90
2017-11-10T05:07:56.131Z,78.30
2017-11-10T05:10:23.679Z,78.00
2017-11-10T05:12:51.217Z,78.00
2017-11-10T05:15:18.722Z,78.00
2017-11-10T05:17:46.329Z,78.70
2017-11-10T05:20:13.834Z,77.60
2017-11-10T05:22:41.445Z,77.80
2017-11-10T05:25:08.942Z,77.70
2017-11-10T05:27:36.442Z,77.60
2017-11-10T05:30:04.729Z,78.20
2017-11-10T05:32:32.237Z,78.20
2017-11-10T05:34:59.776Z,78.30
2017-11-10T05:37:27.322Z,77.80
2017-11-10T05:39:54.821Z,77.30
2017-11-10T05:42:22.357Z,77.50
2017-11-10T05:44:49.867Z,77.90
2017-11-10T05:47:18.161Z,77.90
2017-11-10T05:49:45.659Z,77.80
2017-11-10T05:52:13.198Z,78.10
2017-11-10T05:54:40.702Z,78.00
2017-11-10T05:57:08.229Z,78.00
2017-11-10T05:59:35.762Z,78.30
2017-11-10T06:02:03.270Z,78.20
2017-11-10T06:04:30.970Z,78.20
2017-11-10T06:06:58.477Z,78.30
2017-11-10T06:09:26.021Z,78.40
2017-11-10T06:11:53.513Z,79.50
2017-11-10T06:14:21.009Z,79.00
2017-11-10T06:16:48.554Z,79.00
2017-11-10T06:19:16.117Z,78.80
2017-11-10T06:21:43.635Z,78.40
2017-11-10T06:24:11.125Z,78.90
2017-11-10T06:26:38.660Z,78.80
2017-11-10T06:29:06.922Z,79.30
2017-11-10T06:31:34.435Z,79.30
2017-11-10T06:34:01.954Z,78.80
2017-11-10T06:36:30.217Z,79.30
2017-11-10T06:38:57.817Z,79.30
2017-11-10T06:41:25.317Z,78.80
2017-11-10T06:43:52.943Z,78.70
2017-11-10T06:46:20.462Z,78.70
2017-11-10T06:48:47.954Z,78.30
2017-11-10T06:51:15.481Z,78.80
2017-11-10T06:53:43.749Z,79.40
2017-11-10T06:56:12.030Z,79.50
2017-11-10T06:58:40.298Z,78.20
2017-11-10T07:01:07.833Z,78.10
2017-11-10T07:03:35.335Z,77.40
2017-11-10T07:06:03.602Z,78.10
2017-11-10T07:08:31.992Z,77.80
2017-11-10T07:10:59.492Z,77.70
2017-11-10T07:13:27.023Z,77.10
2017-11-10T07:15:54.540Z,76.70
2017-11-10T07:18:22.064Z,76.50
2017-11-10T07:20:49.605Z,76.40
2017-11-10T07:23:17.106Z,76.40
2017-11-10T07:25:44.716Z,76.60
2017-11-10T07:28:12.237Z,75.90
2017-11-10T07:30:40.536Z,77.30
2017-11-10T07:33:08.046Z,77.20
2017-11-10T07:35:37.057Z,77.60
2017-11-10T07:38:05.345Z,77.50
2017-11-10T07:40:33.608Z,77.60
2017-11-10T07:43:01.916Z,77.80
2017-11-10T07:45:29.429Z,77.80
2017-11-10T07:47:57.022Z,77.80
2017-11-10T07:50:24.586Z,77.40
2017-11-10T07:52:52.119Z,77.00
2017-11-10T07:55:20.385Z,76.60
2017-11-10T07:57:47.890Z,76.50
2017-11-10T08:00:15.426Z,77.20
2017-11-10T08:02:42.930Z,76.20
2017-11-10T08:05:10.486Z,76.00
2017-11-10T08:07:37.980Z,75.90
2017-11-10T08:10:05.479Z,75.50
2017-11-10T08:12:33.013Z,74.40
2017-11-10T08:15:00.525Z,75.00
2017-11-10T08:17:28.020Z,74.90
2017-11-10T08:19:56.302Z,75.00
2017-11-10T08:22:23.806Z,74.90
2017-11-10T08:24:51.342Z,75.20
2017-11-10T08:27:18.866Z,74.90
2017-11-10T08:29:47.130Z,75.10
2017-11-10T08:32:15.452Z,75.00
2017-11-10T08:34:43.004Z,74.80
2017-11-10T08:37:10.549Z,75.00
2017-11-10T08:39:38.041Z,75.00
2017-11-10T08:42:05.546Z,75.30
2017-11-10T08:44:33.842Z,75.60
2017-11-10T08:47:01.371Z,75.50
2017-11-10T08:49:28.948Z,75.70
2017-11-10T08:51:57.254Z,76.30
2017-11-10T08:54:24.796Z,76.40
2017-11-10T08:56:52.339Z,76.90
2017-11-10T08:59:20.615Z,77.20
2017-11-10T09:01:48.111Z,77.10
2017-11-10T09:04:15.648Z,77.30
2017-11-10T09:06:43.202Z,77.80
2017-11-10T09:09:10.732Z,77.80
2017-11-10T09:11:39.033Z,77.50
2017-11-10T09:14:06.587Z,77.50
2017-11-10T09:16:34.111Z,77.30
2017-11-10T09:19:01.638Z,77.20
2017-11-10T09:21:29.168Z,77.20
2017-11-10T09:23:56.666Z,76.50
2017-11-10T09:26:24.197Z,75.40
2017-11-10T09:32:18.567Z,75.00
2017-11-10T09:34:57.528Z,74.80
2017-11-10T09:37:31.291Z,74.70
2017-11-10T09:40:05.274Z,73.90
2017-11-10T09:42:36.734Z,73.90
2017-11-10T09:45:09.931Z,73.90
2017-11-10T09:47:43.146Z,74.20
2017-11-10T09:53:13.037Z,73.60
2017-11-10T09:55:59.230Z,73.40
2017-11-10T10:01:52.216Z,72.90
2017-11-10T10:04:21.679Z,72.80
2017-11-10T10:06:51.045Z,72.90
2017-11-10T10:09:25.052Z,72.10
2017-11-10T10:12:07.971Z,72.20
2017-11-10T10:14:35.954Z,72.20
2017-11-10T10:20:32.826Z,71.70
2017-11-10T10:23:00.358Z,72.00
2017-11-10T10:25:28.638Z,72.00
2017-11-10T10:27:56.953Z,71.70
2017-11-10T10:30:24.457Z,71.70
2017-11-10T10:32:52.737Z,71.60
2017-11-10T10:35:21.032Z,72.10
2017-11-10T10:37:48.601Z,71.90
2017-11-10T10:40:16.138Z,72.20
2017-11-10T10:42:44.421Z,72.90
2017-11-10T10:45:11.947Z,72.80
2017-11-10T10:47:39.478Z,74.10
2017-11-10T10:50:06.976Z,74.20
2017-11-10T10:52:35.286Z,75.30
2017-11-10T10:55:02.795Z,75.30
2017-11-10T10:57:30.308Z,75.00
2017-11-10T10:59:57.846Z,76.20
2017-11-10T11:02:25.345Z,76.20
2017-11-10T11:04:52.910Z,77.50
2017-11-10T11:07:20.468Z,77.20
2017-11-10T11:09:47.981Z,77.60
2017-11-10T11:12:15.484Z,78.20
2017-11-10T11:14:43.016Z,78.90
2017-11-10T11:17:10.514Z,79.80
2017-11-10T11:19:38.031Z,79.30
2017-11-10T11:22:05.571Z,79.40
2017-11-10T11:24:33.098Z,80.30
2017-11-10T11:27:01.498Z,79.80
2017-11-10T11:29:29.018Z,79.60
2017-11-10T11:31:56.562Z,79.90
2017-11-10T11:34:24.080Z,80.50
2017-11-10T11:36:51.577Z,80.90
2017-11-10T11:39:19.112Z,80.60
2017-11-10T11:41:46.612Z,81.40
2017-11-10T11:44:14.210Z,81.40
2017-11-10T11:46:41.705Z,82.50
2017-11-10T11:49:09.301Z,81.50
2017-11-10T11:51:37.577Z,81.30
2017-11-10T11:54:05.851Z,81.10
2017-11-10T11:56:34.150Z,81.70
2017-11-10T11:59:01.650Z,81.70
2017-11-10T12:01:29.167Z,81.80
2017-11-10T12:03:56.697Z,81.70
2017-11-10T12:06:25.792Z,81.50
2017-11-10T12:08:54.074Z,82.30
2017-11-10T12:11:22.375Z,81.80
2017-11-10T12:13:49.873Z,81.70
2017-11-10T12:16:17.427Z,81.30
2017-11-10T12:18:44.953Z,81.50
2017-11-10T12:21:12.448Z,82.30
2017-11-10T12:23:39.981Z,81.60
2017-11-10T12:26:07.515Z,81.20
2017-11-10T12:28:35.125Z,82.10
2017-11-10T12:31:02.927Z,82.70
2017-11-10T12:33:30.442Z,82.30
2017-11-10T12:35:57.979Z,82.30
2017-11-10T12:38:25.533Z,81.10
2017-11-10T12:40:53.031Z,81.00
2017-11-10T12:43:20.545Z,81.30
2017-11-10T12:45:48.110Z,81.20
2017-11-10T12:48:15.649Z,80.90
2017-11-10T12:50:43.179Z,81.00
2017-11-10T12:53:11.497Z,82.70
2017-11-10T12:55:39.800Z,82.00
2017-11-10T12:58:07.310Z,82.80
2017-11-10T13:00:34.854Z,81.70
2017-11-10T13:03:03.408Z,79.90
2017-11-10T13:05:30.931Z,79.90
2017-11-10T13:07:58.458Z,80.60
2017-11-10T13:10:26.753Z,80.70
2017-11-10T13:12:54.380Z,80.70
2017-11-10T13:15:22.684Z,80.60
2017-11-10T13:17:50.315Z,80.70
2017-11-10T13:20:18.636Z,80.10
2017-11-10T13:22:46.133Z,80.10
2017-11-10T13:25:13.654Z,80.50
2017-11-10T13:27:41.156Z,80.90
2017-11-10T13:30:09.484Z,82.20
2017-11-10T13:32:36.980Z,82.00
2017-11-10T13:35:04.576Z,83.30
2017-11-10T13:37:32.131Z,82.00
2017-11-10T13:39:59.644Z,81.70
2017-11-10T13:42:27.137Z,81.50
2017-11-10T13:44:55.418Z,82.90
2017-11-10T13:47:22.950Z,82.90
2017-11-10T13:49:50.565Z,83.00
2017-11-10T13:52:18.228Z,83.20
2017-11-10T13:54:45.729Z,82.50
2017-11-10T13:57:13.449Z,82.90
2017-11-10T13:59:40.990Z,83.30
2017-11-10T14:02:08.499Z,83.00
2017-11-10T14:04:36.098Z,83.00
2017-11-10T14:07:03.603Z,82.70
2017-11-10T14:09:31.123Z,82.50
2017-11-10T14:11:58.624Z,82.00
2017-11-10T14:14:26.309Z,82.30
2017-11-10T14:16:54.603Z,82.40
2017-11-10T14:19:22.939Z,80.80
2017-11-10T14:21:50.495Z,80.80
2017-11-10T14:24:18.015Z,81.30
2017-11-10T14:26:45.577Z,81.20
2017-11-10T14:29:13.106Z,82.50
2017-11-10T14:31:41.406Z,81.70
2017-11-10T14:34:08.945Z,81.70
2017-11-10T14:36:36.463Z,82.30
2017-11-10T14:39:04.007Z,81.80
2017-11-10T14:41:31.539Z,81.80
2017-11-10T14:43:59.059Z,82.00
2017-11-10T14:46:27.505Z,82.60
2017-11-10T14:48:55.006Z,82.60
2017-11-10T14:51:23.312Z,81.90
2017-11-10T14:53:50.808Z,81.90
2017-11-10T14:56:18.349Z,82.00
2017-11-10T14:58:45.873Z,82.20
2017-11-10T15:01:13.420Z,82.30
2017-11-10T15:03:40.914Z,81.80
2017-11-10T15:06:08.436Z,81.70
2017-11-10T15:08:35.980Z,81.30
2017-11-10T15:11:04.278Z,80.70
2017-11-10T15:13:31.811Z,80.70
2017-11-10T15:16:00.063Z,80.90
2017-11-10T15:18:27.658Z,80.90
2017-11-10T15:20:56.358Z,79.80
2017-11-10T15:23:23.870Z,79.80
2017-11-10T15:25:51.415Z,80.40
2017-11-10T15:28:18.914Z,80.60
2017-11-10T15:30:47.234Z,80.80
2017-11-10T15:33:14.737Z,80.80
2017-11-10T15:35:43.031Z,80.00
2017-11-10T15:38:10.555Z,79.90
2017-11-10T15:40:38.081Z,79.90
2017-11-10T15:43:05.618Z,79.60
2017-11-10T15:45:33.157Z,80.50
2017-11-10T15:48:01.445Z,80.70
2017-11-10T15:50:28.989Z,80.70
2017-11-10T15:52:56.526Z,80.60
2017-11-10T15:55:24.801Z,81.20
2017-11-10T15:57:53.101Z,81.50
2017-11-10T16:00:20.620Z,81.40
2017-11-10T16:02:48.138Z,81.80
2017-11-10T16:05:15.690Z,81.80
2017-11-10T16:07:43.195Z,81.70
2017-11-10T16:10:11.130Z,82.40
2017-11-10T16:12:38.626Z,82.20
2017-11-10T16:15:06.139Z,82.70
2017-11-10T16:17:33.691Z,83.20
2017-11-10T16:20:01.200Z,83.30
2017-11-10T16:22:28.689Z,83.50
2017-11-10T16:24:56.240Z,83.00
2017-11-10T16:27:24.511Z,83.50
2017-11-10T16:29:52.839Z,83.30
2017-11-10T16:32:20.330Z,83.30
2017-11-10T16:34:48.674Z,83.40
2017-11-10T16:37:16.196Z,82.60
2017-11-10T16:39:43.742Z,82.90
2017-11-10T16:42:11.251Z,83.40
2017-11-10T16:44:38.746Z,82.50
2017-11-10T16:47:07.046Z,82.40
2017-11-10T16:49:34.614Z,82.50
2017-11-10T16:52:02.170Z,82.40
2017-11-10T16:54:29.687Z,82.80
2017-11-10T16:56:57.195Z,82.90
2017-11-10T16:59:24.738Z,82.80
2017-11-10T17:01:52.243Z,82.90
2017-11-10T17:04:19.978Z,81.60
2017-11-10T17:06:47.499Z,82.20
2017-11-10T17:09:15.041Z,81.90
2017-11-10T17:11:43.318Z,81.70
2017-11-10T17:14:10.885Z,81.60
2017-11-10T17:16:39.194Z,81.20
2017-11-10T17:19:06.828Z,81.20
2017-11-10T17:21:34.401Z,81.20
2017-11-10T17:24:01.919Z,81.00
2017-11-10T17:26:29.463Z,80.90
2017-11-10T17:28:56.997Z,80.10
2017-11-10T17:31:24.542Z,80.60
2017-11-10T17:33:52.205Z,80.30
2017-11-10T17:36:19.728Z,80.20
2017-11-10T17:38:48.020Z,79.90
2017-11-10T17:41:15.587Z,79.90
2017-11-10T17:43:43.114Z,79.80
2017-11-10T17:46:11.441Z,78.70
2017-11-10T17:48:38.980Z,78.70
2017-11-10T17:51:06.546Z,78.30
2017-11-10T17:53:34.109Z,78.90
2017-11-10T17:56:01.641Z,79.00
2017-11-10T17:58:29.166Z,78.30
2017-11-10T18:00:56.686Z,78.70
2017-11-10T18:03:24.226Z,78.70
2017-11-10T18:05:51.760Z,78.40
2017-11-10T18:08:20.056Z,78.50
2017-11-10T18:10:47.604Z,78.40
2017-11-10T18:13:15.328Z,78.10
2017-11-10T18:15:42.857Z,78.10
2017-11-10T18:18:10.417Z,78.50
2017-11-10T18:20:37.932Z,78.00
2017-11-10T18:23:06.281Z,77.30
2017-11-10T18:25:33.806Z,77.20
2017-11-10T18:28:01.387Z,77.50
2017-11-10T18:30:28.890Z,77.40
2017-11-10T18:32:57.687Z,77.30
2017-11-10T18:35:25.263Z,77.20
2017-11-10T18:37:52.781Z,77.40
2017-11-10T18:40:21.161Z,78.10
2017-11-10T18:42:49.438Z,77.50
2017-11-10T18:45:17.713Z,77.50
2017-11-10T18:47:46.112Z,77.40
2017-11-10T18:50:13.619Z,77.40
2017-11-10T18:52:41.190Z,77.90
2017-11-10T18:55:14.301Z,78.10
2017-11-10T18:57:42.625Z,77.70
2017-11-10T19:00:10.178Z,77.70
2017-11-10T19:02:37.744Z,77.40
2017-11-10T19:05:05.264Z,77.30
2017-11-10T19:07:32.785Z,77.80
2017-11-10T19:10:00.379Z,78.00
2017-11-10T19:12:28.046Z,78.00
2017-11-10T19:14:55.759Z,77.60
2017-11-10T19:17:23.293Z,77.50
2017-11-10T19:19:50.808Z,77.90
2017-11-10T19:22:19.133Z,77.80
2017-11-10T19:24:46.670Z,77.80
2017-11-10T19:27:14.235Z,78.00
2017-11-10T19:29:41.785Z,78.00
2017-11-10T19:32:09.309Z,77.80
2017-11-10T19:34:37.711Z,77.70
2017-11-10T19:37:05.243Z,77.70
2017-11-10T19:39:33.541Z,77.90
2017-11-10T19:42:01.046Z,77.90
2017-11-10T19:44:28.565Z,79.00
2017-11-10T19:46:56.110Z,78.10
2017-11-10T19:49:23.612Z,78.00
2017-11-10T19:51:51.172Z,77.90
2017-11-10T19:54:18.700Z,78.40
2017-11-10T19:56:46.206Z,78.00
2017-11-10T19:59:13.770Z,78.60
2017-11-10T20:01:41.325Z,79.10
2017-11-10T20:04:08.859Z,80.00
2017-11-10T20:06:36.413Z,79.00
2017-11-10T20:09:03.945Z,79.20
2017-11-10T20:11:31.475Z,79.40
2017-11-10T20:13:59.777Z,79.80
2017-11-10T20:16:27.455Z,79.70
2017-11-10T20:18:55.043Z,79.70
2017-11-10T20:21:22.600Z,80.00
2017-11-10T20:23:50.133Z,80.30
2017-11-10T20:26:17.637Z,80.60
2017-11-10T20:28:45.956Z,81.40
2017-11-10T20:31:13.518Z,81.40
2017-11-10T20:33:41.033Z,81.80
2017-11-10T20:36:09.356Z,82.20
2017-11-10T20:38:36.946Z,82.20
2017-11-10T20:41:04.473Z,82.50
2017-11-10T20:43:32.012Z,83.00
2017-11-10T20:45:59.565Z,83.20
2017-11-10T20:48:27.116Z,83.30
2017-11-10T20:50:54.660Z,83.60
2017-11-10T20:53:22.959Z,84.50
2017-11-10T20:55:50.501Z,84.50
2017-11-10T20:58:18.034Z,85.20
2017-11-10T21:00:45.543Z,84.80
2017-11-10T21:03:13.089Z,85.60
2017-11-10T21:05:40.600Z,85.00
2017-11-10T21:08:08.210Z,85.00
2017-11-10T21:10:35.724Z,85.20
2017-11-10T21:13:03.249Z,85.50
2017-11-10T21:15:30.792Z,85.60
2017-11-10T21:17:58.354Z,86.00
2017-11-10T21:20:25.939Z,85.80
2017-11-10T21:22:53.474Z,85.90
2017-11-10T21:25:21.001Z,86.00
2017-11-10T21:27:48.519Z,86.20
2017-11-10T21:30:16.089Z,86.00
2017-11-10T21:32:43.607Z,86.00
2017-11-10T21:35:11.186Z,86.20
2017-11-10T21:37:38.733Z,86.40
2017-11-10T21:40:06.249Z,86.30
2017-11-10T21:42:33.799Z,87.10
2017-11-10T21:45:02.069Z,86.00
2017-11-10T21:47:30.384Z,86.10
2017-11-10T21:49:57.923Z,86.10
2017-11-10T21:52:25.434Z,86.00
2017-11-10T21:54:52.985Z,86.00
2017-11-10T21:57:20.502Z,85.90
2017-11-10T21:59:48.041Z,85.80
2017-11-10T22:02:16.310Z,86.10
2017-11-10T22:04:44.594Z,86.00
2017-11-10T22:07:12.942Z,86.00
2017-11-10T22:09:40.448Z,86.00
2017-11-10T22:12:07.954Z,85.90
2017-11-10T22:14:35.486Z,85.90
2017-11-10T22:17:03.162Z,85.80
2017-11-10T22:19:30.653Z,85.60
2017-11-10T22:21:58.941Z,85.40
2017-11-10T22:24:27.253Z,85.40
2017-11-10T22:26:54.764Z,85.40
2017-11-10T22:29:23.069Z,85.00
2017-11-10T22:31:50.602Z,85.00
2017-11-10T22:34:18.130Z,85.10
2017-11-10T22:36:45.664Z,85.20
2017-11-10T22:39:13.232Z,85.10
2017-11-10T22:41:40.753Z,85.10
2017-11-10T22:44:08.266Z,84.90
2017-11-10T22:46:35.795Z,85.10
2017-11-10T22:49:03.318Z,85.00
2017-11-10T22:51:30.853Z,85.00
2017-11-10T22:53:59.146Z,84.40
2017-11-10T22:56:27.476Z,84.10
2017-11-10T22:58:54.979Z,84.10
2017-11-10T23:01:23.276Z,83.30
2017-11-10T23:03:50.811Z,83.10
2017-11-10T23:06:18.349Z,82.90
2017-11-10T23:08:45.876Z,82.40
2017-11-10T23:11:13.404Z,80.50
2017-11-10T23:13:40.926Z,80.50
2017-11-10T23:16:08.423Z,80.40
2017-11-10T23:18:35.987Z,80.10
2017-11-10T23:21:03.501Z,80.30
2017-11-10T23:23:31.772Z,80.10
2017-11-10T23:25:59.306Z,80.10
2017-11-10T23:28:26.854Z,80.00
2017-11-10T23:30:54.355Z,80.10
2017-11-10T23:33:22.619Z,79.90
2017-11-10T23:35:50.939Z,80.50
2017-11-10T23:38:18.516Z,80.00
2017-11-10T23:40:46.083Z,80.00
2017-11-10T23:43:13.585Z,80.10
2017-11-10T23:45:41.875Z,80.20
2017-11-10T23:48:09.439Z,80.20
2017-11-10T23:50:36.959Z,80.10
2017-11-10T23:53:04.568Z,79.90
2017-11-10T23:55:32.087Z,80.00
2017-11-10T23:58:00.391Z,79.30
